Main page
METAR-TAF:

METAR-TAF

Airports :

Hebron Municipal Airport

Hebron, Nebraska, United States

latitude: 40-09-08N, longitude: 097-35-13W, elevation: 1466 ft

Current weather observation

The report was made 23 minutes ago, at 01:55 UTC
Wind 5 mph from the South/Southwest
Temperature 70°F
Humidity 60%
Pressure 29.73 in. Hg
Visibility: 10 miles
Clear sky

METAR: KHJH 070155Z AUTO 20004KT 10SM CLR 21/13 A2973 RMK AO2 T02110126

Time: 21:18 (02:18 UTC)


TAF: missing

Weather observations and forecasts of more than 4000 airports (METAR and TAF reports).

The available stations are represented by yellow and red dots on the map.

Hover mouse over dot to see the name of the station.

Then click to see weather observations and forecasts.

To change the map : click on the green buttons with a black cross to zoom in, on the green button with a dash to zoom out, or on the green arrows for adjacent maps.


METAR-TAF: